sensor_id;sensor_type;location;lat;lon;timestamp;pressure;altitude;pressure_sealevel;temperature;humidity
9462;BME280;4769;42.660;23.262;2023-02-14T00:01:54;95387.50;;;3.05;79.23
9462;BME280;4769;42.660;23.262;2023-02-14T00:04:21;95372.66;;;3.14;78.30
9462;BME280;4769;42.660;23.262;2023-02-14T00:06:48;95395.31;;;3.13;78.14
9462;BME280;4769;42.660;23.262;2023-02-14T00:09:16;95395.16;;;3.15;78.42
9462;BME280;4769;42.660;23.262;2023-02-14T00:11:43;95381.44;;;3.05;79.24
9462;BME280;4769;42.660;23.262;2023-02-14T00:14:11;95386.03;;;3.11;79.02
9462;BME280;4769;42.660;23.262;2023-02-14T00:16:57;95386.84;;;3.03;79.27
9462;BME280;4769;42.660;23.262;2023-02-14T00:19:24;95390.59;;;2.93;79.98
9462;BME280;4769;42.660;23.262;2023-02-14T00:21:51;95386.19;;;3.01;79.98
9462;BME280;4769;42.660;23.262;2023-02-14T00:24:19;95402.81;;;3.00;79.88
9462;BME280;4769;42.660;23.262;2023-02-14T00:26:46;95404.41;;;3.01;80.11
9462;BME280;4769;42.660;23.262;2023-02-14T00:29:16;95396.63;;;3.09;79.91
9462;BME280;4769;42.660;23.262;2023-02-14T00:31:43;95391.56;;;2.92;80.95
9462;BME280;4769;42.660;23.262;2023-02-14T00:34:13;95398.91;;;3.04;80.98
9462;BME280;4769;42.660;23.262;2023-02-14T00:36:40;95391.88;;;3.05;80.39
9462;BME280;4769;42.660;23.262;2023-02-14T00:39:09;95384.72;;;3.07;80.71
9462;BME280;4769;42.660;23.262;2023-02-14T00:41:37;95409.47;;;2.95;81.28
9462;BME280;4769;42.660;23.262;2023-02-14T00:44:04;95385.88;;;3.04;81.08
9462;BME280;4769;42.660;23.262;2023-02-14T00:46:31;95400.00;;;3.10;81.24
9462;BME280;4769;42.660;23.262;2023-02-14T00:48:58;95399.06;;;3.03;81.01
9462;BME280;4769;42.660;23.262;2023-02-14T00:51:26;95380.16;;;2.93;81.27
9462;BME280;4769;42.660;23.262;2023-02-14T00:53:54;95395.31;;;2.97;81.36
9462;BME280;4769;42.660;23.262;2023-02-14T00:56:22;95373.03;;;2.87;80.99
9462;BME280;4769;42.660;23.262;2023-02-14T00:58:49;95371.69;;;2.99;81.33
9462;BME280;4769;42.660;23.262;2023-02-14T01:01:16;95364.72;;;2.99;80.28
9462;BME280;4769;42.660;23.262;2023-02-14T01:03:44;95372.03;;;2.88;80.80
9462;BME280;4769;42.660;23.262;2023-02-14T01:06:11;95373.34;;;2.84;81.32
9462;BME280;4769;42.660;23.262;2023-02-14T01:08:39;95370.06;;;2.98;80.59
9462;BME280;4769;42.660;23.262;2023-02-14T01:11:07;95362.41;;;3.04;80.77
9462;BME280;4769;42.660;23.262;2023-02-14T01:13:34;95362.91;;;3.08;79.99
9462;BME280;4769;42.660;23.262;2023-02-14T01:16:05;95365.19;;;2.95;80.84
9462;BME280;4769;42.660;23.262;2023-02-14T01:18:32;95352.66;;;2.74;81.21
9462;BME280;4769;42.660;23.262;2023-02-14T01:21:09;95369.41;;;2.80;81.77
9462;BME280;4769;42.660;23.262;2023-02-14T01:23:35;95361.13;;;2.84;81.96
9462;BME280;4769;42.660;23.262;2023-02-14T01:26:05;95354.47;;;2.74;81.53
9462;BME280;4769;42.660;23.262;2023-02-14T01:28:33;95354.91;;;2.93;81.13
9462;BME280;4769;42.660;23.262;2023-02-14T01:31:05;95355.09;;;2.92;80.72
9462;BME280;4769;42.660;23.262;2023-02-14T01:33:32;95352.50;;;2.76;81.25
9462;BME280;4769;42.660;23.262;2023-02-14T01:35:59;95355.44;;;2.73;82.28
9462;BME280;4769;42.660;23.262;2023-02-14T01:38:26;95376.25;;;2.81;81.05
9462;BME280;4769;42.660;23.262;2023-02-14T01:40:53;95354.09;;;2.77;81.52
9462;BME280;4769;42.660;23.262;2023-02-14T01:43:21;95336.88;;;2.92;81.28
9462;BME280;4769;42.660;23.262;2023-02-14T01:45:48;95339.16;;;2.87;80.60
9462;BME280;4769;42.660;23.262;2023-02-14T01:48:16;95322.88;;;2.85;80.69
9462;BME280;4769;42.660;23.262;2023-02-14T01:50:44;95323.69;;;2.85;80.90
9462;BME280;4769;42.660;23.262;2023-02-14T01:53:16;95300.41;;;2.76;80.86
9462;BME280;4769;42.660;23.262;2023-02-14T01:55:46;95313.91;;;2.87;80.25
9462;BME280;4769;42.660;23.262;2023-02-14T01:58:17;95327.41;;;2.91;80.67
9462;BME280;4769;42.660;23.262;2023-02-14T02:00:47;95317.97;;;2.90;80.77
9462;BME280;4769;42.660;23.262;2023-02-14T02:03:26;95313.13;;;2.87;80.74
9462;BME280;4769;42.660;23.262;2023-02-14T02:05:56;95317.31;;;2.96;80.76
9462;BME280;4769;42.660;23.262;2023-02-14T02:08:24;95322.34;;;3.05;80.09
9462;BME280;4769;42.660;23.262;2023-02-14T02:10:51;95317.47;;;3.02;80.35
9462;BME280;4769;42.660;23.262;2023-02-14T02:13:20;95327.25;;;2.92;80.72
9462;BME280;4769;42.660;23.262;2023-02-14T02:16:07;95315.38;;;2.90;80.71
9462;BME280;4769;42.660;23.262;2023-02-14T02:18:47;95317.66;;;2.93;80.64
9462;BME280;4769;42.660;23.262;2023-02-14T02:24:27;95322.50;;;2.96;80.28
9462;BME280;4769;42.660;23.262;2023-02-14T02:27:16;95304.31;;;2.80;80.41
9462;BME280;4769;42.660;23.262;2023-02-14T02:38:44;95293.75;;;2.81;80.58
9462;BME280;4769;42.660;23.262;2023-02-14T02:41:22;95280.19;;;2.94;80.19
9462;BME280;4769;42.660;23.262;2023-02-14T02:43:54;95278.59;;;2.85;80.10
9462;BME280;4769;42.660;23.262;2023-02-14T02:46:25;95269.78;;;2.86;80.49
9462;BME280;4769;42.660;23.262;2023-02-14T02:49:25;95273.38;;;2.85;80.26
9462;BME280;4769;42.660;23.262;2023-02-14T02:52:17;95267.38;;;2.84;80.29
9462;BME280;4769;42.660;23.262;2023-02-14T02:55:06;95285.41;;;3.02;80.09
9462;BME280;4769;42.660;23.262;2023-02-14T02:57:38;95271.28;;;2.80;80.69
9462;BME280;4769;42.660;23.262;2023-02-14T03:00:09;95293.06;;;2.79;80.53
9462;BME280;4769;42.660;23.262;2023-02-14T03:02:39;95279.25;;;2.71;80.89
9462;BME280;4769;42.660;23.262;2023-02-14T03:05:21;95271.28;;;2.64;80.67
9462;BME280;4769;42.660;23.262;2023-02-14T03:07:50;95267.53;;;2.75;80.96
9462;BME280;4769;42.660;23.262;2023-02-14T03:10:19;95278.75;;;2.83;80.38
9462;BME280;4769;42.660;23.262;2023-02-14T03:15:52;95284.78;;;2.84;79.86
9462;BME280;4769;42.660;23.262;2023-02-14T03:18:31;95279.25;;;2.79;80.17
9462;BME280;4769;42.660;23.262;2023-02-14T03:21:09;95280.25;;;2.70;80.81
9462;BME280;4769;42.660;23.262;2023-02-14T03:23:45;95269.66;;;2.71;80.62
9462;BME280;4769;42.660;23.262;2023-02-14T03:26:20;95260.56;;;2.67;80.57
9462;BME280;4769;42.660;23.262;2023-02-14T03:28:58;95267.53;;;2.75;80.01
9462;BME280;4769;42.660;23.262;2023-02-14T03:31:31;95250.13;;;2.67;80.84
9462;BME280;4769;42.660;23.262;2023-02-14T03:34:02;95238.56;;;2.78;80.66
9462;BME280;4769;42.660;23.262;2023-02-14T03:36:38;95246.06;;;2.65;80.88
9462;BME280;4769;42.660;23.262;2023-02-14T03:39:11;95249.50;;;2.57;80.96
9462;BME280;4769;42.660;23.262;2023-02-14T03:41:43;95259.41;;;2.54;80.63
9462;BME280;4769;42.660;23.262;2023-02-14T03:44:12;95257.16;;;2.59;80.77
9462;BME280;4769;42.660;23.262;2023-02-14T03:46:46;95244.94;;;2.51;80.90
9462;BME280;4769;42.660;23.262;2023-02-14T03:49:20;95255.19;;;2.61;80.78
9462;BME280;4769;42.660;23.262;2023-02-14T03:51:51;95258.63;;;2.61;80.99
9462;BME280;4769;42.660;23.262;2023-02-14T03:54:20;95249.97;;;2.61;80.84
9462;BME280;4769;42.660;23.262;2023-02-14T03:56:50;95242.16;;;2.53;80.87
9462;BME280;4769;42.660;23.262;2023-02-14T03:59:20;95250.47;;;2.64;80.49
9462;BME280;4769;42.660;23.262;2023-02-14T04:01:51;95235.31;;;2.68;79.76
9462;BME280;4769;42.660;23.262;2023-02-14T04:04:22;95225.25;;;2.49;80.93
9462;BME280;4769;42.660;23.262;2023-02-14T04:06:50;95225.91;;;2.51;80.35
9462;BME280;4769;42.660;23.262;2023-02-14T04:09:17;95236.97;;;2.61;80.39
9462;BME280;4769;42.660;23.262;2023-02-14T04:11:46;95242.16;;;2.61;79.90
9462;BME280;4769;42.660;23.262;2023-02-14T04:14:14;95223.94;;;2.53;80.50
9462;BME280;4769;42.660;23.262;2023-02-14T04:16:41;95228.03;;;2.47;80.31
9462;BME280;4769;42.660;23.262;2023-02-14T04:19:26;95227.69;;;2.42;80.95
9462;BME280;4769;42.660;23.262;2023-02-14T04:21:53;95228.84;;;2.48;80.62
9462;BME280;4769;42.660;23.262;2023-02-14T04:24:19;95230.13;;;2.52;80.66
9462;BME280;4769;42.660;23.262;2023-02-14T04:26:47;95227.06;;;2.56;80.76
9462;BME280;4769;42.660;23.262;2023-02-14T04:29:28;95228.16;;;2.62;79.79
9462;BME280;4769;42.660;23.262;2023-02-14T04:31:54;95229.16;;;2.53;80.20
9462;BME280;4769;42.660;23.262;2023-02-14T04:34:21;95238.94;;;2.51;79.95
9462;BME280;4769;42.660;23.262;2023-02-14T04:36:48;95227.34;;;2.69;79.69
9462;BME280;4769;42.660;23.262;2023-02-14T04:39:15;95240.03;;;2.72;78.96
9462;BME280;4769;42.660;23.262;2023-02-14T04:41:42;95230.63;;;2.55;79.62
9462;BME280;4769;42.660;23.262;2023-02-14T04:44:10;95222.97;;;2.62;79.27
9462;BME280;4769;42.660;23.262;2023-02-14T04:46:37;95221.97;;;2.63;79.72
9462;BME280;4769;42.660;23.262;2023-02-14T04:49:03;95214.47;;;2.68;79.63
9462;BME280;4769;42.660;23.262;2023-02-14T04:51:30;95194.50;;;2.52;80.23
9462;BME280;4769;42.660;23.262;2023-02-14T04:53:57;95200.56;;;2.45;79.96
9462;BME280;4769;42.660;23.262;2023-02-14T04:56:24;95195.00;;;2.40;80.09
9462;BME280;4769;42.660;23.262;2023-02-14T04:58:51;95201.84;;;2.41;79.94
9462;BME280;4769;42.660;23.262;2023-02-14T05:01:19;95196.28;;;2.60;79.48
9462;BME280;4769;42.660;23.262;2023-02-14T05:03:46;95182.50;;;2.43;79.74
9462;BME280;4769;42.660;23.262;2023-02-14T05:06:13;95215.50;;;2.35;80.17
9462;BME280;4769;42.660;23.262;2023-02-14T05:08:39;95215.81;;;2.48;79.98
9462;BME280;4769;42.660;23.262;2023-02-14T05:11:06;95201.03;;;2.56;79.33
9462;BME280;4769;42.660;23.262;2023-02-14T05:13:33;95208.63;;;2.58;78.95
9462;BME280;4769;42.660;23.262;2023-02-14T05:16:00;95208.47;;;2.67;78.77
9462;BME280;4769;42.660;23.262;2023-02-14T05:18:28;95207.53;;;2.52;79.38
9462;BME280;4769;42.660;23.262;2023-02-14T05:20:55;95207.69;;;2.59;78.94
9462;BME280;4769;42.660;23.262;2023-02-14T05:23:21;95218.59;;;2.46;79.34
9462;BME280;4769;42.660;23.262;2023-02-14T05:25:49;95213.06;;;2.49;79.52
9462;BME280;4769;42.660;23.262;2023-02-14T05:28:16;95196.63;;;2.49;79.51
9462;BME280;4769;42.660;23.262;2023-02-14T05:30:43;95211.25;;;2.58;79.31
9462;BME280;4769;42.660;23.262;2023-02-14T05:33:10;95204.44;;;2.41;80.25
9462;BME280;4769;42.660;23.262;2023-02-14T05:35:38;95203.13;;;2.61;79.62
9462;BME280;4769;42.660;23.262;2023-02-14T05:38:05;95191.41;;;2.49;79.54
9462;BME280;4769;42.660;23.262;2023-02-14T05:40:32;95201.34;;;2.53;79.61
9462;BME280;4769;42.660;23.262;2023-02-14T05:42:59;95196.81;;;2.47;79.91
9462;BME280;4769;42.660;23.262;2023-02-14T05:45:26;95195.94;;;2.63;79.23
9462;BME280;4769;42.660;23.262;2023-02-14T05:47:53;95198.59;;;2.47;79.86
9462;BME280;4769;42.660;23.262;2023-02-14T05:50:20;95190.72;;;2.63;79.79
9462;BME280;4769;42.660;23.262;2023-02-14T05:52:48;95190.94;;;2.53;79.82
9462;BME280;4769;42.660;23.262;2023-02-14T05:55:15;95181.44;;;2.68;79.60
9462;BME280;4769;42.660;23.262;2023-02-14T05:57:41;95192.69;;;2.61;79.41
9462;BME280;4769;42.660;23.262;2023-02-14T06:00:09;95199.22;;;2.49;79.79
9462;BME280;4769;42.660;23.262;2023-02-14T06:02:36;95195.81;;;2.56;79.68
9462;BME280;4769;42.660;23.262;2023-02-14T06:05:03;95185.53;;;2.63;79.58
9462;BME280;4769;42.660;23.262;2023-02-14T06:07:30;95189.09;;;2.78;78.94
9462;BME280;4769;42.660;23.262;2023-02-14T06:09:58;95195.59;;;2.74;78.86
9462;BME280;4769;42.660;23.262;2023-02-14T06:12:25;95201.66;;;2.66;79.63
9462;BME280;4769;42.660;23.262;2023-02-14T06:14:51;95198.16;;;2.82;79.07
9462;BME280;4769;42.660;23.262;2023-02-14T06:17:18;95201.13;;;2.71;78.99
9462;BME280;4769;42.660;23.262;2023-02-14T06:19:45;95194.78;;;2.73;79.31
9462;BME280;4769;42.660;23.262;2023-02-14T06:22:11;95206.56;;;3.08;77.80
9462;BME280;4769;42.660;23.262;2023-02-14T06:24:38;95199.22;;;3.11;78.21
9462;BME280;4769;42.660;23.262;2023-02-14T06:27:06;95205.09;;;3.13;77.90
9462;BME280;4769;42.660;23.262;2023-02-14T06:29:33;95218.88;;;3.30;77.18
9462;BME280;4769;42.660;23.262;2023-02-14T06:32:00;95200.03;;;3.20;77.22
9462;BME280;4769;42.660;23.262;2023-02-14T06:34:31;95211.53;;;3.25;77.83
9462;BME280;4769;42.660;23.262;2023-02-14T06:36:58;95205.88;;;3.14;77.93
9462;BME280;4769;42.660;23.262;2023-02-14T06:39:25;95203.72;;;3.25;77.28
9462;BME280;4769;42.660;23.262;2023-02-14T06:41:52;95213.06;;;3.12;77.88
9462;BME280;4769;42.660;23.262;2023-02-14T06:44:20;95205.44;;;3.02;79.00
9462;BME280;4769;42.660;23.262;2023-02-14T06:46:47;95209.88;;;2.94;78.76
9462;BME280;4769;42.660;23.262;2023-02-14T06:49:13;95202.63;;;3.20;78.39
9462;BME280;4769;42.660;23.262;2023-02-14T06:51:40;95196.97;;;3.08;78.49
9462;BME280;4769;42.660;23.262;2023-02-14T06:54:07;95211.63;;;3.09;79.34
9462;BME280;4769;42.660;23.262;2023-02-14T06:56:34;95195.13;;;3.17;79.56
9462;BME280;4769;42.660;23.262;2023-02-14T06:59:00;95190.47;;;3.04;78.58
9462;BME280;4769;42.660;23.262;2023-02-14T07:01:28;95190.75;;;3.17;79.79
9462;BME280;4769;42.660;23.262;2023-02-14T07:03:55;95180.97;;;3.11;78.67
9462;BME280;4769;42.660;23.262;2023-02-14T07:06:22;95195.00;;;3.10;79.92
9462;BME280;4769;42.660;23.262;2023-02-14T07:08:49;95195.59;;;3.20;79.95
9462;BME280;4769;42.660;23.262;2023-02-14T07:11:15;95183.59;;;3.42;79.70
9462;BME280;4769;42.660;23.262;2023-02-14T07:13:42;95185.16;;;3.28;79.94
9462;BME280;4769;42.660;23.262;2023-02-14T07:16:09;95168.75;;;3.20;79.94
9462;BME280;4769;42.660;23.262;2023-02-14T07:18:37;95177.88;;;3.16;79.69
9462;BME280;4769;42.660;23.262;2023-02-14T07:21:04;95195.31;;;3.15;81.07
9462;BME280;4769;42.660;23.262;2023-02-14T07:23:31;95186.00;;;3.21;80.37
9462;BME280;4769;42.660;23.262;2023-02-14T07:25:58;95197.34;;;3.28;81.31
9462;BME280;4769;42.660;23.262;2023-02-14T07:28:25;95195.28;;;3.23;81.99
9462;BME280;4769;42.660;23.262;2023-02-14T07:30:51;95191.97;;;3.29;82.09
9462;BME280;4769;42.660;23.262;2023-02-14T07:33:18;95191.22;;;3.21;81.70
9462;BME280;4769;42.660;23.262;2023-02-14T07:35:46;95204.81;;;3.39;81.33
9462;BME280;4769;42.660;23.262;2023-02-14T07:38:13;95185.78;;;3.30;82.17
9462;BME280;4769;42.660;23.262;2023-02-14T07:40:40;95183.00;;;3.32;82.06
9462;BME280;4769;42.660;23.262;2023-02-14T07:43:06;95190.97;;;3.38;82.17
9462;BME280;4769;42.660;23.262;2023-02-14T07:45:33;95194.13;;;3.26;83.26
9462;BME280;4769;42.660;23.262;2023-02-14T07:48:00;95186.41;;;3.40;82.24
9462;BME280;4769;42.660;23.262;2023-02-14T07:50:27;95194.69;;;3.44;82.30
9462;BME280;4769;42.660;23.262;2023-02-14T07:52:55;95192.72;;;3.46;82.30
9462;BME280;4769;42.660;23.262;2023-02-14T07:55:22;95208.06;;;3.41;82.74
9462;BME280;4769;42.660;23.262;2023-02-14T07:57:50;95218.34;;;3.34;83.57
9462;BME280;4769;42.660;23.262;2023-02-14T08:00:18;95213.97;;;3.35;83.30
9462;BME280;4769;42.660;23.262;2023-02-14T08:02:45;95208.59;;;3.28;83.92
9462;BME280;4769;42.660;23.262;2023-02-14T08:05:11;95211.06;;;3.22;84.52
9462;BME280;4769;42.660;23.262;2023-02-14T08:07:39;95202.53;;;3.36;83.64
9462;BME280;4769;42.660;23.262;2023-02-14T08:10:08;95212.16;;;3.35;83.84
9462;BME280;4769;42.660;23.262;2023-02-14T08:12:35;95219.09;;;3.51;83.96
9462;BME280;4769;42.660;23.262;2023-02-14T08:15:19;95214.81;;;3.58;83.57
9462;BME280;4769;42.660;23.262;2023-02-14T08:18:03;95214.22;;;3.48;83.72
9462;BME280;4769;42.660;23.262;2023-02-14T08:20:29;95223.22;;;3.37;84.08
9462;BME280;4769;42.660;23.262;2023-02-14T08:22:56;95218.72;;;3.23;85.21
9462;BME280;4769;42.660;23.262;2023-02-14T08:25:24;95230.63;;;3.26;85.72
9462;BME280;4769;42.660;23.262;2023-02-14T08:27:51;95237.25;;;3.36;85.56
9462;BME280;4769;42.660;23.262;2023-02-14T08:30:19;95232.53;;;3.32;87.29
9462;BME280;4769;42.660;23.262;2023-02-14T08:32:46;95230.88;;;3.39;87.08
9462;BME280;4769;42.660;23.262;2023-02-14T08:35:13;95219.97;;;3.35;87.46
9462;BME280;4769;42.660;23.262;2023-02-14T08:37:40;95226.00;;;3.36;87.53
9462;BME280;4769;42.660;23.262;2023-02-14T08:40:07;95223.78;;;3.25;88.28
9462;BME280;4769;42.660;23.262;2023-02-14T08:42:35;95217.06;;;3.30;88.68
9462;BME280;4769;42.660;23.262;2023-02-14T08:45:02;95222.09;;;3.40;88.87
9462;BME280;4769;42.660;23.262;2023-02-14T08:47:30;95233.00;;;3.35;89.09
9462;BME280;4769;42.660;23.262;2023-02-14T08:50:00;95240.56;;;3.22;89.88
9462;BME280;4769;42.660;23.262;2023-02-14T08:52:26;95230.63;;;3.18;90.61
9462;BME280;4769;42.660;23.262;2023-02-14T08:54:53;95228.03;;;3.18;91.52
9462;BME280;4769;42.660;23.262;2023-02-14T08:57:20;95232.44;;;3.17;91.68
9462;BME280;4769;42.660;23.262;2023-02-14T08:59:48;95228.84;;;3.18;92.22
9462;BME280;4769;42.660;23.262;2023-02-14T09:02:15;95232.44;;;3.17;92.42
9462;BME280;4769;42.660;23.262;2023-02-14T09:04:41;95226.09;;;3.12;93.04
9462;BME280;4769;42.660;23.262;2023-02-14T09:07:10;95237.47;;;3.19;93.16
9462;BME280;4769;42.660;23.262;2023-02-14T09:09:36;95225.09;;;3.21;92.71
9462;BME280;4769;42.660;23.262;2023-02-14T09:12:04;95212.63;;;3.00;94.01
9462;BME280;4769;42.660;23.262;2023-02-14T09:14:34;95218.66;;;3.01;94.44
9462;BME280;4769;42.660;23.262;2023-02-14T09:17:02;95221.38;;;3.07;94.02
9462;BME280;4769;42.660;23.262;2023-02-14T09:19:30;95223.63;;;3.18;93.96
9462;BME280;4769;42.660;23.262;2023-02-14T09:21:57;95220.03;;;3.19;93.44
9462;BME280;4769;42.660;23.262;2023-02-14T09:24:23;95209.81;;;3.10;93.59
9462;BME280;4769;42.660;23.262;2023-02-14T09:26:51;95194.50;;;3.15;93.30
9462;BME280;4769;42.660;23.262;2023-02-14T09:29:18;95196.88;;;3.32;91.78
9462;BME280;4769;42.660;23.262;2023-02-14T09:31:44;95220.22;;;3.18;91.27
9462;BME280;4769;42.660;23.262;2023-02-14T09:34:13;95213.69;;;3.14;91.66
9462;BME280;4769;42.660;23.262;2023-02-14T09:36:57;95213.69;;;3.14;91.35
9462;BME280;4769;42.660;23.262;2023-02-14T09:39:23;95218.75;;;3.15;91.36
9462;BME280;4769;42.660;23.262;2023-02-14T09:45:04;95206.19;;;3.19;89.62
9462;BME280;4769;42.660;23.262;2023-02-14T09:47:35;95201.34;;;3.08;90.04
9462;BME280;4769;42.660;23.262;2023-02-14T09:50:12;95199.16;;;3.27;89.31
9462;BME280;4769;42.660;23.262;2023-02-14T09:52:42;95210.53;;;3.34;88.27
9462;BME280;4769;42.660;23.262;2023-02-14T09:55:14;95201.22;;;3.40;88.64
9462;BME280;4769;42.660;23.262;2023-02-14T09:57:48;95209.53;;;3.35;88.26
9462;BME280;4769;42.660;23.262;2023-02-14T10:00:25;95201.06;;;3.41;87.58
9462;BME280;4769;42.660;23.262;2023-02-14T10:03:06;95197.22;;;3.21;88.21
9462;BME280;4769;42.660;23.262;2023-02-14T10:05:40;95195.03;;;3.41;88.76
9462;BME280;4769;42.660;23.262;2023-02-14T10:08:21;95185.13;;;3.36;87.23
9462;BME280;4769;42.660;23.262;2023-02-14T10:10:59;95171.16;;;3.21;87.99
9462;BME280;4769;42.660;23.262;2023-02-14T10:13:32;95189.97;;;3.39;87.84
9462;BME280;4769;42.660;23.262;2023-02-14T10:16:07;95185.56;;;3.48;86.70
9462;BME280;4769;42.660;23.262;2023-02-14T10:18:39;95176.03;;;3.55;85.78
9462;BME280;4769;42.660;23.262;2023-02-14T10:21:10;95187.22;;;3.33;85.38
9462;BME280;4769;42.660;23.262;2023-02-14T10:23:48;95184.38;;;3.20;86.19
9462;BME280;4769;42.660;23.262;2023-02-14T10:26:18;95169.38;;;3.22;86.05
9462;BME280;4769;42.660;23.262;2023-02-14T10:28:49;95175.84;;;3.34;86.48
9462;BME280;4769;42.660;23.262;2023-02-14T10:31:21;95181.00;;;3.42;86.19
9462;BME280;4769;42.660;23.262;2023-02-14T10:33:52;95175.34;;;3.30;86.99
9462;BME280;4769;42.660;23.262;2023-02-14T10:36:30;95172.84;;;3.45;85.62
9462;BME280;4769;42.660;23.262;2023-02-14T10:39:03;95169.00;;;3.33;85.53
9462;BME280;4769;42.660;23.262;2023-02-14T10:41:40;95163.34;;;3.21;85.35
9462;BME280;4769;42.660;23.262;2023-02-14T10:44:20;95179.47;;;3.25;85.33
9462;BME280;4769;42.660;23.262;2023-02-14T10:46:53;95177.00;;;3.31;84.83
9462;BME280;4769;42.660;23.262;2023-02-14T10:49:28;95176.66;;;3.34;84.56
9462;BME280;4769;42.660;23.262;2023-02-14T10:52:06;95193.38;;;3.09;84.89
9462;BME280;4769;42.660;23.262;2023-02-14T10:54:36;95196.66;;;3.03;86.71
9462;BME280;4769;42.660;23.262;2023-02-14T10:57:08;95186.72;;;3.07;86.81
9462;BME280;4769;42.660;23.262;2023-02-14T10:59:45;95177.75;;;3.09;86.35
9462;BME280;4769;42.660;23.262;2023-02-14T11:02:17;95170.19;;;3.22;85.72
9462;BME280;4769;42.660;23.262;2023-02-14T11:04:46;95160.56;;;3.23;85.11
9462;BME280;4769;42.660;23.262;2023-02-14T11:07:18;95167.47;;;3.16;84.97
9462;BME280;4769;42.660;23.262;2023-02-14T11:09:45;95161.56;;;3.22;85.01
9462;BME280;4769;42.660;23.262;2023-02-14T11:12:30;95164.69;;;3.17;85.01
9462;BME280;4769;42.660;23.262;2023-02-14T11:15:08;95177.53;;;3.19;84.43
9462;BME280;4769;42.660;23.262;2023-02-14T11:17:36;95173.28;;;3.26;84.55
9462;BME280;4769;42.660;23.262;2023-02-14T11:20:20;95154.63;;;3.37;84.72
9462;BME280;4769;42.660;23.262;2023-02-14T11:22:49;95157.38;;;3.13;83.83
9462;BME280;4769;42.660;23.262;2023-02-14T11:25:19;95154.00;;;3.04;84.96
9462;BME280;4769;42.660;23.262;2023-02-14T11:27:47;95173.00;;;3.13;84.92
9462;BME280;4769;42.660;23.262;2023-02-14T11:30:25;95153.78;;;3.14;84.29
9462;BME280;4769;42.660;23.262;2023-02-14T11:32:53;95149.72;;;3.11;84.97
9462;BME280;4769;42.660;23.262;2023-02-14T11:35:22;95135.59;;;3.06;84.97
9462;BME280;4769;42.660;23.262;2023-02-14T11:37:54;95149.53;;;3.21;84.41
9462;BME280;4769;42.660;23.262;2023-02-14T11:40:27;95115.84;;;3.11;84.16
9462;BME280;4769;42.660;23.262;2023-02-14T11:42:57;95146.47;;;3.40;83.68
9462;BME280;4769;42.660;23.262;2023-02-14T11:45:30;95130.63;;;3.19;84.53
9462;BME280;4769;42.660;23.262;2023-02-14T11:48:16;95135.16;;;3.25;82.93
9462;BME280;4769;42.660;23.262;2023-02-14T11:50:53;95130.63;;;3.19;83.44
9462;BME280;4769;42.660;23.262;2023-02-14T11:53:24;95128.94;;;3.34;82.88
9462;BME280;4769;42.660;23.262;2023-02-14T11:55:52;95126.03;;;3.29;82.45
9462;BME280;4769;42.660;23.262;2023-02-14T11:58:29;95112.44;;;3.41;81.71
9462;BME280;4769;42.660;23.262;2023-02-14T12:00:57;95113.28;;;3.34;81.51
9462;BME280;4769;42.660;23.262;2023-02-14T12:03:26;95117.56;;;3.27;81.63
9462;BME280;4769;42.660;23.262;2023-02-14T12:05:54;95110.13;;;3.16;81.39
9462;BME280;4769;42.660;23.262;2023-02-14T12:08:28;95108.72;;;3.36;80.88
9462;BME280;4769;42.660;23.262;2023-02-14T12:11:01;95116.19;;;3.39;81.09
9462;BME280;4769;42.660;23.262;2023-02-14T12:13:28;95105.47;;;3.34;81.22
9462;BME280;4769;42.660;23.262;2023-02-14T12:15:56;95101.47;;;3.46;80.84
9462;BME280;4769;42.660;23.262;2023-02-14T12:18:34;95098.47;;;3.57;80.02
9462;BME280;4769;42.660;23.262;2023-02-14T12:21:10;95103.03;;;3.55;79.83
9462;BME280;4769;42.660;23.262;2023-02-14T12:23:46;95097.78;;;3.63;79.73
9462;BME280;4769;42.660;23.262;2023-02-14T12:26:23;95108.84;;;3.65;79.68
9462;BME280;4769;42.660;23.262;2023-02-14T12:28:57;95080.69;;;3.60;79.73
9462;BME280;4769;42.660;23.262;2023-02-14T12:31:26;95083.84;;;3.70;79.43
9462;BME280;4769;42.660;23.262;2023-02-14T12:33:53;95083.47;;;3.59;79.99
9462;BME280;4769;42.660;23.262;2023-02-14T12:36:32;95090.00;;;3.55;80.58
9462;BME280;4769;42.660;23.262;2023-02-14T12:39:08;95083.31;;;3.75;79.90
9462;BME280;4769;42.660;23.262;2023-02-14T12:41:44;95085.72;;;3.62;80.92
9462;BME280;4769;42.660;23.262;2023-02-14T12:44:20;95087.81;;;3.66;80.85
9462;BME280;4769;42.660;23.262;2023-02-14T12:47:03;95083.03;;;3.70;80.72
9462;BME280;4769;42.660;23.262;2023-02-14T12:52:50;95100.72;;;3.60;81.54
9462;BME280;4769;42.660;23.262;2023-02-14T12:55:35;95085.63;;;3.55;81.77
9462;BME280;4769;42.660;23.262;2023-02-14T12:58:11;95072.03;;;3.60;81.36
9462;BME280;4769;42.660;23.262;2023-02-14T13:00:51;95083.31;;;3.75;81.27
9462;BME280;4769;42.660;23.262;2023-02-14T13:04:00;95085.94;;;3.97;80.57
9462;BME280;4769;42.660;23.262;2023-02-14T13:06:30;95082.22;;;3.92;80.79
9462;BME280;4769;42.660;23.262;2023-02-14T13:09:12;95080.47;;;3.84;81.49
9462;BME280;4769;42.660;23.262;2023-02-14T13:11:52;95079.75;;;3.76;82.21
9462;BME280;4769;42.660;23.262;2023-02-14T13:14:45;95070.28;;;3.75;82.34
9462;BME280;4769;42.660;23.262;2023-02-14T13:17:21;95064.72;;;3.78;82.40
9462;BME280;4769;42.660;23.262;2023-02-14T13:20:01;95059.38;;;3.94;81.46
9462;BME280;4769;42.660;23.262;2023-02-14T13:22:31;95058.63;;;3.85;82.27
9462;BME280;4769;42.660;23.262;2023-02-14T13:25:03;95064.16;;;4.05;81.39
9462;BME280;4769;42.660;23.262;2023-02-14T13:27:36;95060.25;;;3.86;82.19
9462;BME280;4769;42.660;23.262;2023-02-14T13:30:10;95061.72;;;3.66;82.62
9462;BME280;4769;42.660;23.262;2023-02-14T13:32:41;95078.22;;;3.81;82.85
9462;BME280;4769;42.660;23.262;2023-02-14T13:35:15;95062.34;;;3.91;82.66
9462;BME280;4769;42.660;23.262;2023-02-14T13:37:45;95059.63;;;3.84;83.36
9462;BME280;4769;42.660;23.262;2023-02-14T13:40:18;95071.81;;;3.69;83.82
9462;BME280;4769;42.660;23.262;2023-02-14T13:42:52;95050.97;;;3.84;83.79
9462;BME280;4769;42.660;23.262;2023-02-14T13:45:51;95066.47;;;3.63;83.79
9462;BME280;4769;42.660;23.262;2023-02-14T13:48:19;95048.56;;;3.60;84.48
9462;BME280;4769;42.660;23.262;2023-02-14T13:50:51;95060.38;;;3.70;84.08
9462;BME280;4769;42.660;23.262;2023-02-14T13:53:34;95050.38;;;3.59;84.22
9462;BME280;4769;42.660;23.262;2023-02-14T13:56:03;95050.69;;;3.79;83.95
9462;BME280;4769;42.660;23.262;2023-02-14T13:58:33;95066.63;;;3.84;83.13
9462;BME280;4769;42.660;23.262;2023-02-14T14:01:27;95066.22;;;3.72;83.62
9462;BME280;4769;42.660;23.262;2023-02-14T14:03:57;95069.03;;;3.71;83.63